createdAt,value
2022-12-22T00:00:52.613Z,63.13
2022-12-22T00:03:20.054Z,63.13
2022-12-22T00:05:47.527Z,62.82
2022-12-22T00:08:15.221Z,62.89
2022-12-22T00:10:42.509Z,62.71
2022-12-22T00:13:14.716Z,62.56
2022-12-22T00:15:42.025Z,62.56
2022-12-22T00:18:15.775Z,62.40
2022-12-22T00:20:42.961Z,63.03
2022-12-22T00:23:10.973Z,62.86
2022-12-22T00:25:38.317Z,62.83
2022-12-22T00:28:15.319Z,62.46
2022-12-22T00:30:43.199Z,62.68
2022-12-22T00:33:16.991Z,62.63
2022-12-22T00:35:44.557Z,62.54
2022-12-22T00:38:18.872Z,62.77
2022-12-22T00:40:46.026Z,62.73
2022-12-22T00:43:14.048Z,63.16
2022-12-22T00:45:41.652Z,62.93
2022-12-22T00:48:26.691Z,63.16
2022-12-22T00:50:54.829Z,63.08
2022-12-22T00:53:22.920Z,63.24
2022-12-22T00:55:50.801Z,63.33
2022-12-22T00:58:20.596Z,63.24
2022-12-22T01:00:47.786Z,63.28
2022-12-22T01:03:15.559Z,63.39
2022-12-22T01:05:43.337Z,63.45
2022-12-22T01:08:12.535Z,63.62
2022-12-22T01:10:39.802Z,63.44
2022-12-22T01:13:16.397Z,63.63
2022-12-22T01:15:43.822Z,63.75
2022-12-22T01:18:11.002Z,63.40
2022-12-22T01:20:38.189Z,62.91
2022-12-22T01:23:11.011Z,63.37
2022-12-22T01:25:38.160Z,62.80
2022-12-22T01:28:05.777Z,62.55
2022-12-22T01:30:32.940Z,62.52
2022-12-22T01:33:00.112Z,62.88
2022-12-22T01:35:31.803Z,62.60
2022-12-22T01:37:58.956Z,62.64
2022-12-22T01:40:26.663Z,62.31
2022-12-22T01:42:53.805Z,62.58
2022-12-22T01:45:23.274Z,62.49
2022-12-22T01:47:50.628Z,62.92
2022-12-22T01:50:34.712Z,62.77
2022-12-22T01:53:07.546Z,63.20
2022-12-22T01:55:34.696Z,63.35
2022-12-22T01:58:01.951Z,63.41
2022-12-22T02:00:29.131Z,63.20
2022-12-22T02:02:56.361Z,63.16
2022-12-22T02:05:23.901Z,63.02
2022-12-22T02:08:21.275Z,63.12
2022-12-22T02:11:32.876Z,62.83
2022-12-22T02:14:30.141Z,62.81
2022-12-22T02:17:26.725Z,62.48
2022-12-22T02:20:48.354Z,62.79
2022-12-22T02:24:03.385Z,63.04
2022-12-22T02:26:49.052Z,62.81
2022-12-22T02:29:25.014Z,62.54
2022-12-22T02:31:52.471Z,62.57
2022-12-22T02:34:19.748Z,62.77
2022-12-22T02:37:03.515Z,62.53
2022-12-22T02:39:59.746Z,62.99
2022-12-22T02:42:49.638Z,62.98
2022-12-22T02:46:03.210Z,62.85
2022-12-22T02:48:48.304Z,62.40
2022-12-22T02:51:23.241Z,62.85
2022-12-22T02:53:53.731Z,63.03
2022-12-22T02:56:22.705Z,63.32
2022-12-22T02:58:50.044Z,63.38
2022-12-22T03:01:17.609Z,63.42
2022-12-22T03:03:44.813Z,63.06
2022-12-22T03:06:11.957Z,62.75
2022-12-22T03:08:39.114Z,63.00
2022-12-22T03:11:06.359Z,63.02
2022-12-22T03:13:33.565Z,63.02
2022-12-22T03:16:00.768Z,62.91
2022-12-22T03:18:28.088Z,62.71
2022-12-22T03:20:57.062Z,62.73
2022-12-22T03:23:24.189Z,62.79
2022-12-22T03:25:51.375Z,62.70
2022-12-22T03:28:19.675Z,62.41
2022-12-22T03:30:53.403Z,62.37
2022-12-22T03:33:21.522Z,62.46
2022-12-22T03:35:48.731Z,62.35
2022-12-22T03:38:16.248Z,62.28
2022-12-22T03:40:44.679Z,62.71
2022-12-22T03:43:16.885Z,62.08
2022-12-22T03:45:44.036Z,62.15
2022-12-22T03:48:11.780Z,62.04
2022-12-22T03:50:39.078Z,61.91
2022-12-22T03:53:06.350Z,61.78
2022-12-22T03:55:33.560Z,61.70
2022-12-22T03:58:00.718Z,61.68
2022-12-22T04:00:27.913Z,61.71
2022-12-22T04:02:58.951Z,62.11
2022-12-22T04:05:27.388Z,61.72
2022-12-22T04:07:54.521Z,61.74
2022-12-22T04:10:21.673Z,62.08
2022-12-22T04:12:52.655Z,61.60
2022-12-22T04:15:22.855Z,61.48
2022-12-22T04:17:50.396Z,61.54
2022-12-22T04:20:19.790Z,61.75
2022-12-22T04:22:48.538Z,61.23
2022-12-22T04:25:16.289Z,61.26
2022-12-22T04:27:43.588Z,60.72
2022-12-22T04:30:11.726Z,61.10
2022-12-22T04:32:38.852Z,61.20
2022-12-22T04:35:07.278Z,60.98
2022-12-22T04:37:34.931Z,60.90
2022-12-22T04:40:02.411Z,60.59
2022-12-22T04:42:29.646Z,61.05
2022-12-22T04:44:56.763Z,60.82
2022-12-22T04:47:23.962Z,60.60
2022-12-22T04:49:51.109Z,60.65
2022-12-22T04:52:18.265Z,60.54
2022-12-22T04:54:45.452Z,60.85
2022-12-22T04:57:12.956Z,60.90
2022-12-22T04:59:40.097Z,60.92
2022-12-22T05:02:07.399Z,60.90
2022-12-22T05:04:34.721Z,60.45
2022-12-22T05:07:05.050Z,60.59
2022-12-22T05:09:32.209Z,61.15
2022-12-22T05:11:59.352Z,60.88
2022-12-22T05:14:26.831Z,60.83
2022-12-22T05:16:54.146Z,61.42
2022-12-22T05:19:24.872Z,61.22
2022-12-22T05:21:54.561Z,61.57
2022-12-22T05:24:21.745Z,61.25
2022-12-22T05:26:48.874Z,61.07
2022-12-22T05:29:16.015Z,61.10
2022-12-22T05:31:47.090Z,61.25
2022-12-22T05:34:14.940Z,60.74
2022-12-22T05:36:42.115Z,60.71
2022-12-22T05:39:09.572Z,60.86
2022-12-22T05:41:36.726Z,60.52
2022-12-22T05:44:04.179Z,60.83
2022-12-22T05:46:31.450Z,60.66
2022-12-22T05:48:58.604Z,60.46
2022-12-22T05:51:25.814Z,60.45
2022-12-22T05:53:52.966Z,60.57
2022-12-22T05:56:20.149Z,60.02
2022-12-22T05:58:47.309Z,60.43
2022-12-22T06:01:14.475Z,60.30
2022-12-22T06:03:41.769Z,60.37
2022-12-22T06:06:09.147Z,60.17
2022-12-22T06:08:36.350Z,60.26
2022-12-22T06:11:03.508Z,60.48
2022-12-22T06:13:31.922Z,60.67
2022-12-22T06:15:59.118Z,60.81
2022-12-22T06:18:26.540Z,60.94
2022-12-22T06:20:54.525Z,61.00
2022-12-22T06:23:23.133Z,60.68
2022-12-22T06:26:00.358Z,60.54
2022-12-22T06:28:28.684Z,60.50
2022-12-22T06:30:56.558Z,60.27
2022-12-22T06:33:24.148Z,60.59
2022-12-22T06:35:57.978Z,60.47
2022-12-22T06:38:28.556Z,60.55
2022-12-22T06:40:56.161Z,60.34
2022-12-22T06:43:23.595Z,60.24
2022-12-22T06:45:51.236Z,60.38
2022-12-22T06:48:19.108Z,60.44
2022-12-22T06:50:46.742Z,60.54
2022-12-22T06:53:14.340Z,60.05
2022-12-22T06:55:42.073Z,60.35
2022-12-22T06:58:09.570Z,60.21
2022-12-22T07:00:36.706Z,60.65
2022-12-22T07:03:04.127Z,60.69
2022-12-22T07:05:31.350Z,60.64
2022-12-22T07:08:02.723Z,60.98
2022-12-22T07:10:35.089Z,60.84
2022-12-22T07:13:02.257Z,60.59
2022-12-22T07:15:29.368Z,60.78
2022-12-22T07:17:56.511Z,60.80
2022-12-22T07:20:23.680Z,60.82
2022-12-22T07:22:50.797Z,60.47
2022-12-22T07:25:18.130Z,60.25
2022-12-22T07:27:45.264Z,60.41
2022-12-22T07:30:12.923Z,60.43
2022-12-22T07:32:40.148Z,60.71
2022-12-22T07:35:07.845Z,60.53
2022-12-22T07:37:35.318Z,60.95
2022-12-22T07:40:02.459Z,60.03
2022-12-22T07:42:29.673Z,59.84
2022-12-22T07:44:56.796Z,60.31
2022-12-22T07:47:25.407Z,60.27
2022-12-22T07:49:55.691Z,60.76
2022-12-22T07:52:22.854Z,60.90
2022-12-22T07:54:49.998Z,60.58
2022-12-22T07:57:17.182Z,60.49
2022-12-22T07:59:44.491Z,59.87
2022-12-22T08:02:12.043Z,59.88
2022-12-22T08:04:39.431Z,60.13
2022-12-22T08:07:07.233Z,60.21
2022-12-22T08:09:34.505Z,62.13
2022-12-22T08:12:01.725Z,61.80
2022-12-22T08:14:28.854Z,61.57
2022-12-22T08:16:56.029Z,62.17
2022-12-22T08:19:23.414Z,62.52
2022-12-22T08:21:53.177Z,62.17
2022-12-22T08:24:21.783Z,62.31
2022-12-22T08:26:57.690Z,62.44
2022-12-22T08:29:36.566Z,62.11
2022-12-22T08:32:04.783Z,61.38
2022-12-22T08:34:32.221Z,60.81
2022-12-22T08:37:03.024Z,60.80
2022-12-22T08:39:37.680Z,61.07
2022-12-22T08:42:08.838Z,61.45
2022-12-22T08:44:37.930Z,61.81
2022-12-22T08:47:07.986Z,61.72
2022-12-22T08:49:38.804Z,61.57
2022-12-22T08:52:06.062Z,62.02
2022-12-22T08:54:33.471Z,61.87
2022-12-22T08:57:00.746Z,61.66
2022-12-22T08:59:27.938Z,61.76
2022-12-22T09:01:55.181Z,61.94
2022-12-22T09:04:23.552Z,61.90
2022-12-22T09:06:52.756Z,61.97
2022-12-22T09:09:21.220Z,62.25
2022-12-22T09:11:49.437Z,61.96
2022-12-22T09:14:17.513Z,62.25
2022-12-22T09:16:44.950Z,61.95
2022-12-22T09:19:12.235Z,62.22
2022-12-22T09:21:39.391Z,61.66
2022-12-22T09:24:07.142Z,61.60
2022-12-22T09:26:35.905Z,61.30
2022-12-22T09:29:04.662Z,61.56
2022-12-22T09:31:32.655Z,61.25
2022-12-22T09:34:00.123Z,61.46
2022-12-22T09:36:31.304Z,61.61
2022-12-22T09:38:58.484Z,61.93
2022-12-22T09:41:49.504Z,62.11
2022-12-22T09:44:51.307Z,62.50
2022-12-22T09:47:34.025Z,63.02
2022-12-22T09:50:02.887Z,62.78
2022-12-22T09:52:36.099Z,62.83
2022-12-22T09:55:13.382Z,63.27
2022-12-22T09:57:40.521Z,63.47
2022-12-22T10:00:20.918Z,63.15
2022-12-22T10:03:41.028Z,62.92
2022-12-22T10:06:19.146Z,63.15
2022-12-22T10:08:46.572Z,62.99
2022-12-22T10:11:17.751Z,62.64
2022-12-22T10:13:46.833Z,62.50
2022-12-22T10:16:28.890Z,62.92
2022-12-22T10:19:10.625Z,63.10
2022-12-22T10:21:46.448Z,62.95
2022-12-22T10:24:35.709Z,62.54
2022-12-22T10:27:03.130Z,62.43
2022-12-22T10:29:32.579Z,62.83
2022-12-22T10:32:20.662Z,62.71
2022-12-22T10:35:06.839Z,63.22
2022-12-22T10:37:37.996Z,63.30
2022-12-22T10:40:22.188Z,63.69
2022-12-22T10:42:56.379Z,63.49
2022-12-22T10:45:27.890Z,63.37
2022-12-22T10:47:57.861Z,63.34
2022-12-22T10:50:25.180Z,63.35
2022-12-22T10:52:58.326Z,63.57
2022-12-22T10:55:29.819Z,63.15
2022-12-22T10:58:17.722Z,63.23
2022-12-22T11:01:01.179Z,63.65
2022-12-22T11:03:32.832Z,63.57
2022-12-22T11:06:01.781Z,63.93
2022-12-22T11:08:31.768Z,63.64
2022-12-22T11:11:13.335Z,63.62
2022-12-22T11:13:51.288Z,63.55
2022-12-22T11:16:40.498Z,63.99
2022-12-22T11:19:33.465Z,63.92
2022-12-22T11:22:14.991Z,63.95
2022-12-22T11:25:29.252Z,63.41
2022-12-22T11:28:17.904Z,63.22
2022-12-22T11:31:35.574Z,63.50
2022-12-22T11:34:46.468Z,63.63
2022-12-22T11:37:45.588Z,64.27
2022-12-22T11:40:54.158Z,64.34
2022-12-22T11:43:30.595Z,64.42
2022-12-22T11:46:42.975Z,64.51
2022-12-22T11:50:58.890Z,64.16
2022-12-22T11:53:17.150Z,64.82
2022-12-22T11:56:02.036Z,64.86
2022-12-22T11:58:47.199Z,64.74
2022-12-22T12:01:45.019Z,64.61
2022-12-22T12:04:58.432Z,64.96
2022-12-22T12:07:48.619Z,65.88
2022-12-22T12:10:25.584Z,65.54
2022-12-22T12:13:28.695Z,65.15
2022-12-22T12:16:34.364Z,64.79
2022-12-22T12:19:27.150Z,64.84
2022-12-22T12:22:00.197Z,64.54
2022-12-22T12:25:21.050Z,64.72
2022-12-22T12:28:03.722Z,64.91
2022-12-22T12:31:04.409Z,65.19
2022-12-22T12:33:51.494Z,65.24
2022-12-22T12:36:42.198Z,64.93
2022-12-22T12:39:21.087Z,64.79
2022-12-22T12:41:57.514Z,64.55
2022-12-22T12:44:34.946Z,64.41
2022-12-22T12:47:33.859Z,64.61
2022-12-22T12:50:21.300Z,64.62
2022-12-22T12:52:48.387Z,64.92
2022-12-22T12:55:51.666Z,64.65
2022-12-22T12:58:36.870Z,64.62
2022-12-22T13:01:09.293Z,64.52
2022-12-22T13:06:51.333Z,64.57
2022-12-22T13:09:49.111Z,64.49
2022-12-22T13:12:49.629Z,64.50
2022-12-22T13:15:34.630Z,64.26
2022-12-22T13:18:09.291Z,64.55
2022-12-22T13:20:38.025Z,64.32
2022-12-22T13:23:15.059Z,64.09
2022-12-22T13:26:00.143Z,63.97
2022-12-22T13:28:29.638Z,64.25
2022-12-22T13:31:30.956Z,63.60
2022-12-22T13:34:25.999Z,63.77
2022-12-22T13:36:57.527Z,63.96
2022-12-22T13:39:24.757Z,63.72
2022-12-22T13:41:52.640Z,63.66
2022-12-22T13:44:33.735Z,63.95
2022-12-22T13:47:12.735Z,64.03
2022-12-22T13:50:07.803Z,64.12
2022-12-22T13:52:30.783Z,64.04
2022-12-22T13:55:00.593Z,64.47
2022-12-22T13:57:27.857Z,64.16
2022-12-22T13:59:55.201Z,64.47
2022-12-22T14:02:22.830Z,64.39
2022-12-22T14:05:12.523Z,63.90
2022-12-22T14:07:39.789Z,63.79
2022-12-22T14:10:08.425Z,63.81
2022-12-22T14:12:46.756Z,63.31
2022-12-22T14:15:20.786Z,63.50
2022-12-22T14:17:52.777Z,63.20
2022-12-22T14:20:38.492Z,63.67
2022-12-22T14:23:41.719Z,63.65
2022-12-22T14:26:22.543Z,63.51
2022-12-22T14:28:55.138Z,63.17
2022-12-22T14:31:22.317Z,63.53
2022-12-22T14:33:59.768Z,63.49
2022-12-22T14:36:40.783Z,63.66
2022-12-22T14:39:25.194Z,63.80
2022-12-22T14:42:00.936Z,63.59
2022-12-22T14:44:42.264Z,63.57
2022-12-22T14:47:17.294Z,63.62
2022-12-22T14:49:51.820Z,63.48
2022-12-22T14:52:25.604Z,63.23
2022-12-22T14:54:54.611Z,63.32
2022-12-22T14:57:36.905Z,63.45
2022-12-22T15:00:32.224Z,63.36
2022-12-22T15:03:23.139Z,63.59
2022-12-22T15:05:52.229Z,63.53
2022-12-22T15:08:42.840Z,62.79
2022-12-22T15:11:15.712Z,63.14
2022-12-22T15:13:45.591Z,63.17
2022-12-22T15:16:20.856Z,63.11
2022-12-22T15:18:52.359Z,63.21
2022-12-22T15:21:20.906Z,62.85
2022-12-22T15:23:48.001Z,63.10
2022-12-22T15:26:15.280Z,63.26
2022-12-22T15:28:42.525Z,62.95
2022-12-22T15:31:16.691Z,63.21
2022-12-22T15:33:45.909Z,63.10
2022-12-22T15:36:14.891Z,62.91
2022-12-22T15:38:42.366Z,63.10
2022-12-22T15:41:09.586Z,62.21
2022-12-22T15:43:57.172Z,62.18
2022-12-22T15:46:23.955Z,62.51
2022-12-22T15:48:51.271Z,62.55
2022-12-22T15:51:26.527Z,62.73
2022-12-22T15:53:57.428Z,62.93
2022-12-22T15:56:28.546Z,63.05
2022-12-22T15:58:56.169Z,62.89
2022-12-22T16:01:23.423Z,63.62
2022-12-22T16:03:50.911Z,63.50
2022-12-22T16:06:19.794Z,63.22
2022-12-22T16:08:53.089Z,63.07
2022-12-22T16:11:20.560Z,63.04
2022-12-22T16:13:50.209Z,63.09
2022-12-22T16:16:17.935Z,62.84
2022-12-22T16:18:45.558Z,62.60
2022-12-22T16:21:23.796Z,62.49
2022-12-22T16:23:51.404Z,62.36
2022-12-22T16:26:21.125Z,62.61
2022-12-22T16:28:48.861Z,62.00
2022-12-22T16:31:23.283Z,61.93
2022-12-22T16:34:18.486Z,61.86
2022-12-22T16:36:50.165Z,62.16
2022-12-22T16:39:21.638Z,62.12
2022-12-22T16:42:00.207Z,62.14
2022-12-22T16:44:28.994Z,62.77
2022-12-22T16:46:58.743Z,62.67
2022-12-22T16:52:23.081Z,62.51
2022-12-22T16:54:52.780Z,62.54
2022-12-22T16:57:20.326Z,62.40
2022-12-22T16:59:47.600Z,62.46
2022-12-22T17:02:34.182Z,62.69
2022-12-22T17:05:03.187Z,62.46
2022-12-22T17:07:33.591Z,62.52
2022-12-22T17:10:02.937Z,62.12
2022-12-22T17:12:34.609Z,62.08
2022-12-22T17:15:02.501Z,62.41
2022-12-22T17:17:35.540Z,61.82
2022-12-22T17:20:12.842Z,61.88
2022-12-22T17:22:44.833Z,62.03
2022-12-22T17:25:26.659Z,62.29
2022-12-22T17:27:56.225Z,62.81
2022-12-22T17:30:27.094Z,62.03
2022-12-22T17:32:56.444Z,61.58
2022-12-22T17:35:27.257Z,62.09
2022-12-22T17:37:54.867Z,62.00
2022-12-22T17:40:24.984Z,62.14
2022-12-22T17:42:53.460Z,62.28
2022-12-22T17:45:30.403Z,62.06
2022-12-22T17:47:58.287Z,61.95
2022-12-22T17:50:25.681Z,62.23
2022-12-22T17:52:52.894Z,61.73
2022-12-22T17:56:06.433Z,62.15
